sensor_id;sensor_type;location;lat;lon;timestamp;temperature;humidity
25058;DHT22;13057;50.978;11.034;2023-06-04T00:02:09;13.30;86.80
25058;DHT22;13057;50.978;11.034;2023-06-04T00:04:35;13.20;86.90
25058;DHT22;13057;50.978;11.034;2023-06-04T00:07:01;13.20;87.30
25058;DHT22;13057;50.978;11.034;2023-06-04T00:09:27;13.20;87.30
25058;DHT22;13057;50.978;11.034;2023-06-04T00:11:52;13.10;87.40
25058;DHT22;13057;50.978;11.034;2023-06-04T00:14:18;13.00;87.40
25058;DHT22;13057;50.978;11.034;2023-06-04T00:16:44;13.00;87.60
25058;DHT22;13057;50.978;11.034;2023-06-04T00:19:10;12.90;87.90
25058;DHT22;13057;50.978;11.034;2023-06-04T00:24:39;12.80;88.30
25058;DHT22;13057;50.978;11.034;2023-06-04T00:27:06;12.70;88.50
25058;DHT22;13057;50.978;11.034;2023-06-04T00:29:32;12.60;88.90
25058;DHT22;13057;50.978;11.034;2023-06-04T00:31:58;12.60;89.70
25058;DHT22;13057;50.978;11.034;2023-06-04T00:34:23;12.50;89.10
25058;DHT22;13057;50.978;11.034;2023-06-04T00:36:49;12.50;89.20
25058;DHT22;13057;50.978;11.034;2023-06-04T00:39:15;12.40;89.60
25058;DHT22;13057;50.978;11.034;2023-06-04T00:41:43;12.30;90.00
25058;DHT22;13057;50.978;11.034;2023-06-04T00:44:08;12.30;90.00
25058;DHT22;13057;50.978;11.034;2023-06-04T00:46:34;12.30;90.20
25058;DHT22;13057;50.978;11.034;2023-06-04T00:49:01;12.20;90.20
25058;DHT22;13057;50.978;11.034;2023-06-04T00:51:26;12.20;90.30
25058;DHT22;13057;50.978;11.034;2023-06-04T00:53:54;12.20;90.40
25058;DHT22;13057;50.978;11.034;2023-06-04T00:56:32;12.10;90.40
25058;DHT22;13057;50.978;11.034;2023-06-04T00:58:59;12.10;90.50
25058;DHT22;13057;50.978;11.034;2023-06-04T01:01:26;12.10;90.60
25058;DHT22;13057;50.978;11.034;2023-06-04T01:03:56;12.00;90.60
25058;DHT22;13057;50.978;11.034;2023-06-04T01:06:36;12.00;90.70
25058;DHT22;13057;50.978;11.034;2023-06-04T01:09:03;11.90;90.80
25058;DHT22;13057;50.978;11.034;2023-06-04T01:11:30;11.90;90.90
25058;DHT22;13057;50.978;11.034;2023-06-04T01:13:56;11.80;91.00
25058;DHT22;13057;50.978;11.034;2023-06-04T01:16:21;11.80;91.10
25058;DHT22;13057;50.978;11.034;2023-06-04T01:18:47;11.70;91.10
25058;DHT22;13057;50.978;11.034;2023-06-04T01:21:13;11.70;91.30
25058;DHT22;13057;50.978;11.034;2023-06-04T01:23:49;11.60;91.40
25058;DHT22;13057;50.978;11.034;2023-06-04T01:26:24;11.50;91.50
25058;DHT22;13057;50.978;11.034;2023-06-04T01:28:50;11.50;91.60
25058;DHT22;13057;50.978;11.034;2023-06-04T01:31:19;11.50;91.60
25058;DHT22;13057;50.978;11.034;2023-06-04T01:33:51;11.40;91.50
25058;DHT22;13057;50.978;11.034;2023-06-04T01:36:16;11.40;91.60
25058;DHT22;13057;50.978;11.034;2023-06-04T01:38:45;11.30;91.60
25058;DHT22;13057;50.978;11.034;2023-06-04T01:41:11;11.20;91.80
25058;DHT22;13057;50.978;11.034;2023-06-04T01:43:37;11.10;91.90
25058;DHT22;13057;50.978;11.034;2023-06-04T01:46:03;11.10;92.00
25058;DHT22;13057;50.978;11.034;2023-06-04T01:48:29;11.20;92.00
25058;DHT22;13057;50.978;11.034;2023-06-04T01:50:55;11.10;92.00
25058;DHT22;13057;50.978;11.034;2023-06-04T01:53:21;11.10;92.00
25058;DHT22;13057;50.978;11.034;2023-06-04T01:55:47;11.10;91.90
25058;DHT22;13057;50.978;11.034;2023-06-04T01:58:15;11.10;91.90
25058;DHT22;13057;50.978;11.034;2023-06-04T02:00:43;11.10;92.00
25058;DHT22;13057;50.978;11.034;2023-06-04T02:03:09;11.10;92.00
25058;DHT22;13057;50.978;11.034;2023-06-04T02:05:35;11.10;92.20
25058;DHT22;13057;50.978;11.034;2023-06-04T02:08:02;11.00;92.20
25058;DHT22;13057;50.978;11.034;2023-06-04T02:10:30;11.00;92.30
25058;DHT22;13057;50.978;11.034;2023-06-04T02:12:58;10.90;92.40
25058;DHT22;13057;50.978;11.034;2023-06-04T02:15:24;10.90;92.50
25058;DHT22;13057;50.978;11.034;2023-06-04T02:17:50;10.90;92.60
25058;DHT22;13057;50.978;11.034;2023-06-04T02:20:18;10.80;92.60
25058;DHT22;13057;50.978;11.034;2023-06-04T02:22:44;10.80;92.70
25058;DHT22;13057;50.978;11.034;2023-06-04T02:25:09;10.70;92.70
25058;DHT22;13057;50.978;11.034;2023-06-04T02:27:35;10.60;92.70
25058;DHT22;13057;50.978;11.034;2023-06-04T02:30:02;10.60;92.80
25058;DHT22;13057;50.978;11.034;2023-06-04T02:32:27;10.60;93.20
25058;DHT22;13057;50.978;11.034;2023-06-04T02:34:54;10.50;92.90
25058;DHT22;13057;50.978;11.034;2023-06-04T02:37:21;10.50;92.90
25058;DHT22;13057;50.978;11.034;2023-06-04T02:39:47;10.40;93.00
25058;DHT22;13057;50.978;11.034;2023-06-04T02:42:12;10.40;93.10
25058;DHT22;13057;50.978;11.034;2023-06-04T02:44:38;10.30;93.10
25058;DHT22;13057;50.978;11.034;2023-06-04T02:47:03;10.30;93.10
25058;DHT22;13057;50.978;11.034;2023-06-04T02:49:30;10.30;93.20
25058;DHT22;13057;50.978;11.034;2023-06-04T02:51:55;10.30;93.10
25058;DHT22;13057;50.978;11.034;2023-06-04T02:54:21;10.20;93.20
25058;DHT22;13057;50.978;11.034;2023-06-04T02:56:47;10.20;93.20
25058;DHT22;13057;50.978;11.034;2023-06-04T02:59:14;10.20;93.30
25058;DHT22;13057;50.978;11.034;2023-06-04T03:01:40;10.20;93.30
25058;DHT22;13057;50.978;11.034;2023-06-04T03:04:06;10.10;93.30
25058;DHT22;13057;50.978;11.034;2023-06-04T03:06:36;10.10;93.50
25058;DHT22;13057;50.978;11.034;2023-06-04T03:09:03;10.00;93.50
25058;DHT22;13057;50.978;11.034;2023-06-04T03:11:29;10.00;93.50
25058;DHT22;13057;50.978;11.034;2023-06-04T03:13:55;10.00;93.60
25058;DHT22;13057;50.978;11.034;2023-06-04T03:16:21;10.00;93.70
25058;DHT22;13057;50.978;11.034;2023-06-04T03:18:47;10.00;93.70
25058;DHT22;13057;50.978;11.034;2023-06-04T03:21:15;10.00;93.60
25058;DHT22;13057;50.978;11.034;2023-06-04T03:23:40;10.00;93.60
25058;DHT22;13057;50.978;11.034;2023-06-04T03:26:06;10.00;93.60
25058;DHT22;13057;50.978;11.034;2023-06-04T03:28:32;10.00;93.50
25058;DHT22;13057;50.978;11.034;2023-06-04T03:30:58;10.00;93.60
25058;DHT22;13057;50.978;11.034;2023-06-04T03:33:25;9.90;93.50
25058;DHT22;13057;50.978;11.034;2023-06-04T03:35:51;9.90;93.60
25058;DHT22;13057;50.978;11.034;2023-06-04T03:38:18;9.80;93.60
25058;DHT22;13057;50.978;11.034;2023-06-04T03:40:43;9.80;93.70
25058;DHT22;13057;50.978;11.034;2023-06-04T03:43:09;9.80;93.80
25058;DHT22;13057;50.978;11.034;2023-06-04T03:45:35;9.80;93.80
25058;DHT22;13057;50.978;11.034;2023-06-04T03:48:01;9.80;93.80
25058;DHT22;13057;50.978;11.034;2023-06-04T03:50:26;9.80;93.80
25058;DHT22;13057;50.978;11.034;2023-06-04T03:52:53;9.80;93.70
25058;DHT22;13057;50.978;11.034;2023-06-04T03:55:19;9.80;93.70
25058;DHT22;13057;50.978;11.034;2023-06-04T03:57:44;9.80;93.80
25058;DHT22;13057;50.978;11.034;2023-06-04T04:00:10;9.90;93.80
25058;DHT22;13057;50.978;11.034;2023-06-04T04:02:39;9.90;93.80
25058;DHT22;13057;50.978;11.034;2023-06-04T04:05:05;9.90;93.70
25058;DHT22;13057;50.978;11.034;2023-06-04T04:07:31;10.00;93.70
25058;DHT22;13057;50.978;11.034;2023-06-04T04:09:57;10.10;94.00
25058;DHT22;13057;50.978;11.034;2023-06-04T04:12:22;10.40;93.40
25058;DHT22;13057;50.978;11.034;2023-06-04T04:14:48;10.50;93.30
25058;DHT22;13057;50.978;11.034;2023-06-04T04:17:14;10.90;93.10
25058;DHT22;13057;50.978;11.034;2023-06-04T04:19:40;11.20;92.30
25058;DHT22;13057;50.978;11.034;2023-06-04T04:22:06;11.00;91.90
25058;DHT22;13057;50.978;11.034;2023-06-04T04:24:32;10.90;92.20
25058;DHT22;13057;50.978;11.034;2023-06-04T04:27:00;10.80;92.50
25058;DHT22;13057;50.978;11.034;2023-06-04T04:29:29;10.70;92.80
25058;DHT22;13057;50.978;11.034;2023-06-04T04:31:58;10.60;92.70
25058;DHT22;13057;50.978;11.034;2023-06-04T04:34:27;10.60;93.00
25058;DHT22;13057;50.978;11.034;2023-06-04T04:36:52;10.60;92.90
25058;DHT22;13057;50.978;11.034;2023-06-04T04:39:19;10.50;93.00
25058;DHT22;13057;50.978;11.034;2023-06-04T04:41:46;10.60;93.00
25058;DHT22;13057;50.978;11.034;2023-06-04T04:44:11;10.60;93.00
25058;DHT22;13057;50.978;11.034;2023-06-04T04:46:37;10.50;93.00
25058;DHT22;13057;50.978;11.034;2023-06-04T04:49:03;10.60;93.10
25058;DHT22;13057;50.978;11.034;2023-06-04T04:51:29;10.60;93.10
25058;DHT22;13057;50.978;11.034;2023-06-04T04:53:54;10.60;93.20
25058;DHT22;13057;50.978;11.034;2023-06-04T04:56:20;10.80;92.90
25058;DHT22;13057;50.978;11.034;2023-06-04T04:58:48;10.70;92.90
25058;DHT22;13057;50.978;11.034;2023-06-04T05:01:14;10.70;93.00
25058;DHT22;13057;50.978;11.034;2023-06-04T05:03:40;10.80;93.00
25058;DHT22;13057;50.978;11.034;2023-06-04T05:06:05;10.80;92.90
25058;DHT22;13057;50.978;11.034;2023-06-04T05:08:31;10.90;92.80
25058;DHT22;13057;50.978;11.034;2023-06-04T05:10:57;11.00;92.90
25058;DHT22;13057;50.978;11.034;2023-06-04T05:13:22;11.00;92.70
25058;DHT22;13057;50.978;11.034;2023-06-04T05:15:48;11.00;92.60
25058;DHT22;13057;50.978;11.034;2023-06-04T05:18:18;11.00;92.70
25058;DHT22;13057;50.978;11.034;2023-06-04T05:20:46;11.10;93.10
25058;DHT22;13057;50.978;11.034;2023-06-04T05:23:12;11.10;92.70
25058;DHT22;13057;50.978;11.034;2023-06-04T05:25:38;11.20;92.80
25058;DHT22;13057;50.978;11.034;2023-06-04T05:28:04;11.50;92.80
25058;DHT22;13057;50.978;11.034;2023-06-04T05:30:31;12.10;92.10
25058;DHT22;13057;50.978;11.034;2023-06-04T05:32:57;12.90;91.30
25058;DHT22;13057;50.978;11.034;2023-06-04T05:35:22;13.80;90.20
25058;DHT22;13057;50.978;11.034;2023-06-04T05:37:48;14.60;88.20
25058;DHT22;13057;50.978;11.034;2023-06-04T05:40:19;15.20;85.90
25058;DHT22;13057;50.978;11.034;2023-06-04T05:42:45;15.60;84.40
25058;DHT22;13057;50.978;11.034;2023-06-04T05:45:11;16.00;83.40
25058;DHT22;13057;50.978;11.034;2023-06-04T05:47:36;16.30;82.30
25058;DHT22;13057;50.978;11.034;2023-06-04T05:50:02;16.60;81.30
25058;DHT22;13057;50.978;11.034;2023-06-04T05:52:28;16.90;80.50
25058;DHT22;13057;50.978;11.034;2023-06-04T05:54:54;17.10;79.80
25058;DHT22;13057;50.978;11.034;2023-06-04T05:57:20;17.40;79.30
25058;DHT22;13057;50.978;11.034;2023-06-04T05:59:46;17.60;78.30
25058;DHT22;13057;50.978;11.034;2023-06-04T06:02:11;17.90;77.90
25058;DHT22;13057;50.978;11.034;2023-06-04T06:04:38;18.10;77.20
25058;DHT22;13057;50.978;11.034;2023-06-04T06:07:04;18.40;76.50
25058;DHT22;13057;50.978;11.034;2023-06-04T06:09:30;18.60;75.50
25058;DHT22;13057;50.978;11.034;2023-06-04T06:11:55;18.90;73.90
25058;DHT22;13057;50.978;11.034;2023-06-04T06:14:21;19.50;72.40
25058;DHT22;13057;50.978;11.034;2023-06-04T06:16:48;19.60;70.20
25058;DHT22;13057;50.978;11.034;2023-06-04T06:19:14;18.70;70.50
25058;DHT22;13057;50.978;11.034;2023-06-04T06:21:40;17.70;73.70
25058;DHT22;13057;50.978;11.034;2023-06-04T06:24:05;17.00;75.30
25058;DHT22;13057;50.978;11.034;2023-06-04T06:26:31;16.60;75.70
25058;DHT22;13057;50.978;11.034;2023-06-04T06:28:57;16.30;76.70
25058;DHT22;13057;50.978;11.034;2023-06-04T06:31:23;16.10;77.90
25058;DHT22;13057;50.978;11.034;2023-06-04T06:33:48;16.10;78.40
25058;DHT22;13057;50.978;11.034;2023-06-04T06:36:14;16.00;78.50
25058;DHT22;13057;50.978;11.034;2023-06-04T06:38:44;16.10;78.50
25058;DHT22;13057;50.978;11.034;2023-06-04T06:41:10;16.00;78.50
25058;DHT22;13057;50.978;11.034;2023-06-04T06:43:36;16.10;78.90
25058;DHT22;13057;50.978;11.034;2023-06-04T06:46:02;16.10;78.50
25058;DHT22;13057;50.978;11.034;2023-06-04T06:48:27;16.10;79.10
25058;DHT22;13057;50.978;11.034;2023-06-04T06:50:54;16.00;78.40
25058;DHT22;13057;50.978;11.034;2023-06-04T06:53:19;16.00;78.50
25058;DHT22;13057;50.978;11.034;2023-06-04T06:55:45;16.10;78.00
25058;DHT22;13057;50.978;11.034;2023-06-04T06:58:11;16.00;78.30
25058;DHT22;13057;50.978;11.034;2023-06-04T07:00:37;16.00;78.00
25058;DHT22;13057;50.978;11.034;2023-06-04T07:03:02;15.90;78.60
25058;DHT22;13057;50.978;11.034;2023-06-04T07:05:29;15.90;78.60
25058;DHT22;13057;50.978;11.034;2023-06-04T07:07:55;15.90;78.50
25058;DHT22;13057;50.978;11.034;2023-06-04T07:10:23;16.00;78.60
25058;DHT22;13057;50.978;11.034;2023-06-04T07:12:49;16.10;78.10
25058;DHT22;13057;50.978;11.034;2023-06-04T07:15:15;16.20;78.20
25058;DHT22;13057;50.978;11.034;2023-06-04T07:17:41;16.70;78.60
25058;DHT22;13057;50.978;11.034;2023-06-04T07:20:09;17.80;76.90
25058;DHT22;13057;50.978;11.034;2023-06-04T07:22:35;18.90;73.20
25058;DHT22;13057;50.978;11.034;2023-06-04T07:25:00;19.60;71.10
25058;DHT22;13057;50.978;11.034;2023-06-04T07:27:26;20.10;70.30
25058;DHT22;13057;50.978;11.034;2023-06-04T07:29:52;20.50;68.30
25058;DHT22;13057;50.978;11.034;2023-06-04T07:32:18;20.80;68.50
25058;DHT22;13057;50.978;11.034;2023-06-04T07:34:44;21.30;67.20
25058;DHT22;13057;50.978;11.034;2023-06-04T07:37:10;21.60;66.50
25058;DHT22;13057;50.978;11.034;2023-06-04T07:39:38;21.90;65.70
25058;DHT22;13057;50.978;11.034;2023-06-04T07:42:04;21.90;65.50
25058;DHT22;13057;50.978;11.034;2023-06-04T07:44:31;22.10;65.80
25058;DHT22;13057;50.978;11.034;2023-06-04T07:46:56;22.50;65.50
25058;DHT22;13057;50.978;11.034;2023-06-04T07:49:22;22.70;64.00
25058;DHT22;13057;50.978;11.034;2023-06-04T07:51:48;22.80;64.40
25058;DHT22;13057;50.978;11.034;2023-06-04T07:54:13;23.00;62.60
25058;DHT22;13057;50.978;11.034;2023-06-04T07:56:39;23.20;63.50
25058;DHT22;13057;50.978;11.034;2023-06-04T07:59:05;23.60;63.20
25058;DHT22;13057;50.978;11.034;2023-06-04T08:01:31;24.00;60.70
25058;DHT22;13057;50.978;11.034;2023-06-04T08:03:56;23.70;60.80
25058;DHT22;13057;50.978;11.034;2023-06-04T08:06:24;23.60;60.60
25058;DHT22;13057;50.978;11.034;2023-06-04T08:08:52;23.70;61.00
25058;DHT22;13057;50.978;11.034;2023-06-04T08:11:18;24.00;61.60
25058;DHT22;13057;50.978;11.034;2023-06-04T08:13:44;23.90;60.60
25058;DHT22;13057;50.978;11.034;2023-06-04T08:16:09;23.60;60.10
25058;DHT22;13057;50.978;11.034;2023-06-04T08:18:40;23.00;60.50
25058;DHT22;13057;50.978;11.034;2023-06-04T08:21:08;22.20;62.30
25058;DHT22;13057;50.978;11.034;2023-06-04T08:23:34;21.60;64.20
25058;DHT22;13057;50.978;11.034;2023-06-04T08:25:59;21.40;65.90
25058;DHT22;13057;50.978;11.034;2023-06-04T08:28:25;21.70;65.90
25058;DHT22;13057;50.978;11.034;2023-06-04T08:30:51;22.40;63.80
25058;DHT22;13057;50.978;11.034;2023-06-04T08:33:17;23.00;61.80
25058;DHT22;13057;50.978;11.034;2023-06-04T08:35:44;23.50;61.70
25058;DHT22;13057;50.978;11.034;2023-06-04T08:38:09;23.40;59.80
25058;DHT22;13057;50.978;11.034;2023-06-04T08:40:35;23.50;60.00
25058;DHT22;13057;50.978;11.034;2023-06-04T08:43:01;23.80;59.90
25058;DHT22;13057;50.978;11.034;2023-06-04T08:45:27;24.10;58.20
25058;DHT22;13057;50.978;11.034;2023-06-04T08:47:53;24.30;58.10
25058;DHT22;13057;50.978;11.034;2023-06-04T08:50:20;24.60;57.00
25058;DHT22;13057;50.978;11.034;2023-06-04T08:52:46;24.30;56.60
25058;DHT22;13057;50.978;11.034;2023-06-04T08:55:12;24.40;57.00
25058;DHT22;13057;50.978;11.034;2023-06-04T08:57:39;24.40;56.30
25058;DHT22;13057;50.978;11.034;2023-06-04T09:00:05;24.30;55.50
25058;DHT22;13057;50.978;11.034;2023-06-04T09:02:35;24.40;54.80
25058;DHT22;13057;50.978;11.034;2023-06-04T09:05:02;24.70;53.10
25058;DHT22;13057;50.978;11.034;2023-06-04T09:07:29;24.90;53.10
25058;DHT22;13057;50.978;11.034;2023-06-04T09:09:55;24.90;52.80
25058;DHT22;13057;50.978;11.034;2023-06-04T09:12:22;24.50;52.60
25058;DHT22;13057;50.978;11.034;2023-06-04T09:14:48;24.40;52.30
25058;DHT22;13057;50.978;11.034;2023-06-04T09:17:20;24.50;51.60
25058;DHT22;13057;50.978;11.034;2023-06-04T09:19:46;24.40;51.80
25058;DHT22;13057;50.978;11.034;2023-06-04T09:22:12;24.50;51.70
25058;DHT22;13057;50.978;11.034;2023-06-04T09:24:39;24.40;51.90
25058;DHT22;13057;50.978;11.034;2023-06-04T09:27:12;24.30;51.60
25058;DHT22;13057;50.978;11.034;2023-06-04T09:29:39;24.10;52.10
25058;DHT22;13057;50.978;11.034;2023-06-04T09:32:04;24.00;51.10
25058;DHT22;13057;50.978;11.034;2023-06-04T09:34:30;24.00;51.60
25058;DHT22;13057;50.978;11.034;2023-06-04T09:36:56;24.00;51.30
25058;DHT22;13057;50.978;11.034;2023-06-04T09:39:22;24.30;52.20
25058;DHT22;13057;50.978;11.034;2023-06-04T09:41:59;24.40;51.90
25058;DHT22;13057;50.978;11.034;2023-06-04T09:44:25;24.70;51.50
25058;DHT22;13057;50.978;11.034;2023-06-04T09:46:53;24.70;50.70
25058;DHT22;13057;50.978;11.034;2023-06-04T09:49:20;24.60;51.40
25058;DHT22;13057;50.978;11.034;2023-06-04T09:51:47;24.40;51.20
25058;DHT22;13057;50.978;11.034;2023-06-04T09:54:13;24.30;50.20
25058;DHT22;13057;50.978;11.034;2023-06-04T09:56:40;24.60;50.50
25058;DHT22;13057;50.978;11.034;2023-06-04T09:59:07;24.70;50.40
25058;DHT22;13057;50.978;11.034;2023-06-04T10:01:33;24.50;50.90
25058;DHT22;13057;50.978;11.034;2023-06-04T10:04:03;24.40;50.20
25058;DHT22;13057;50.978;11.034;2023-06-04T10:06:32;24.40;51.60
25058;DHT22;13057;50.978;11.034;2023-06-04T10:08:58;24.20;50.00
25058;DHT22;13057;50.978;11.034;2023-06-04T10:11:26;24.10;50.20
25058;DHT22;13057;50.978;11.034;2023-06-04T10:13:53;23.90;49.80
25058;DHT22;13057;50.978;11.034;2023-06-04T10:16:23;23.90;50.70
25058;DHT22;13057;50.978;11.034;2023-06-04T10:18:49;23.80;50.10
25058;DHT22;13057;50.978;11.034;2023-06-04T10:21:15;23.70;50.20
25058;DHT22;13057;50.978;11.034;2023-06-04T10:23:43;23.60;50.40
25058;DHT22;13057;50.978;11.034;2023-06-04T10:26:13;23.70;50.90
25058;DHT22;13057;50.978;11.034;2023-06-04T10:28:57;23.60;50.10
25058;DHT22;13057;50.978;11.034;2023-06-04T10:31:23;23.50;50.40
25058;DHT22;13057;50.978;11.034;2023-06-04T10:33:53;23.40;50.50
25058;DHT22;13057;50.978;11.034;2023-06-04T10:36:19;23.40;51.10
25058;DHT22;13057;50.978;11.034;2023-06-04T10:38:49;23.40;50.10
25058;DHT22;13057;50.978;11.034;2023-06-04T10:41:15;23.50;50.50
25058;DHT22;13057;50.978;11.034;2023-06-04T10:43:42;23.30;49.80
25058;DHT22;13057;50.978;11.034;2023-06-04T10:46:12;23.20;50.20
25058;DHT22;13057;50.978;11.034;2023-06-04T10:48:49;23.10;49.90
25058;DHT22;13057;50.978;11.034;2023-06-04T10:51:16;23.20;50.60
25058;DHT22;13057;50.978;11.034;2023-06-04T10:53:43;23.20;49.80
25058;DHT22;13057;50.978;11.034;2023-06-04T10:56:10;23.20;49.60
25058;DHT22;13057;50.978;11.034;2023-06-04T10:58:36;23.00;49.70
25058;DHT22;13057;50.978;11.034;2023-06-04T11:01:01;22.90;50.00
25058;DHT22;13057;50.978;11.034;2023-06-04T11:03:35;23.00;49.40
25058;DHT22;13057;50.978;11.034;2023-06-04T11:06:01;23.00;49.90
25058;DHT22;13057;50.978;11.034;2023-06-04T11:08:28;23.00;50.00
25058;DHT22;13057;50.978;11.034;2023-06-04T11:10:54;22.90;48.70
25058;DHT22;13057;50.978;11.034;2023-06-04T11:13:24;22.70;49.00
25058;DHT22;13057;50.978;11.034;2023-06-04T11:15:51;22.70;48.90
25058;DHT22;13057;50.978;11.034;2023-06-04T11:18:18;22.60;50.10
25058;DHT22;13057;50.978;11.034;2023-06-04T11:20:46;22.60;49.80
25058;DHT22;13057;50.978;11.034;2023-06-04T11:23:12;22.50;50.00
25058;DHT22;13057;50.978;11.034;2023-06-04T11:25:38;22.40;49.90
25058;DHT22;13057;50.978;11.034;2023-06-04T11:28:04;22.30;50.70
25058;DHT22;13057;50.978;11.034;2023-06-04T11:30:30;22.30;50.20
25058;DHT22;13057;50.978;11.034;2023-06-04T11:33:00;22.20;50.10
25058;DHT22;13057;50.978;11.034;2023-06-04T11:35:26;22.00;50.00
25058;DHT22;13057;50.978;11.034;2023-06-04T11:37:52;22.00;50.40
25058;DHT22;13057;50.978;11.034;2023-06-04T11:40:19;22.00;51.00
25058;DHT22;13057;50.978;11.034;2023-06-04T11:42:47;22.00;51.20
25058;DHT22;13057;50.978;11.034;2023-06-04T11:48:16;22.00;51.00
25058;DHT22;13057;50.978;11.034;2023-06-04T11:50:42;22.00;50.80
25058;DHT22;13057;50.978;11.034;2023-06-04T11:53:07;22.00;51.00
25058;DHT22;13057;50.978;11.034;2023-06-04T11:55:33;22.00;50.40
25058;DHT22;13057;50.978;11.034;2023-06-04T12:01:02;21.90;50.60
25058;DHT22;13057;50.978;11.034;2023-06-04T12:03:33;21.80;50.70
25058;DHT22;13057;50.978;11.034;2023-06-04T12:06:08;21.80;50.50
25058;DHT22;13057;50.978;11.034;2023-06-04T12:08:34;21.80;50.90
25058;DHT22;13057;50.978;11.034;2023-06-04T12:11:09;21.90;50.80
25058;DHT22;13057;50.978;11.034;2023-06-04T12:13:38;21.90;50.90
25058;DHT22;13057;50.978;11.034;2023-06-04T12:16:04;21.90;50.00
25058;DHT22;13057;50.978;11.034;2023-06-04T12:18:29;21.70;49.10
25058;DHT22;13057;50.978;11.034;2023-06-04T12:20:55;21.70;50.10
25058;DHT22;13057;50.978;11.034;2023-06-04T12:23:21;21.60;50.30
25058;DHT22;13057;50.978;11.034;2023-06-04T12:25:49;21.70;51.00
25058;DHT22;13057;50.978;11.034;2023-06-04T12:28:17;21.60;50.40
25058;DHT22;13057;50.978;11.034;2023-06-04T12:30:43;21.60;50.20
25058;DHT22;13057;50.978;11.034;2023-06-04T12:33:10;21.60;49.60
25058;DHT22;13057;50.978;11.034;2023-06-04T12:35:36;21.70;50.10
25058;DHT22;13057;50.978;11.034;2023-06-04T12:38:02;21.70;50.70
25058;DHT22;13057;50.978;11.034;2023-06-04T12:40:28;21.70;50.00
25058;DHT22;13057;50.978;11.034;2023-06-04T12:42:54;21.60;51.70
25058;DHT22;13057;50.978;11.034;2023-06-04T12:45:20;21.60;50.50
25058;DHT22;13057;50.978;11.034;2023-06-04T12:47:45;21.60;51.80
25058;DHT22;13057;50.978;11.034;2023-06-04T12:50:12;21.70;51.60
25058;DHT22;13057;50.978;11.034;2023-06-04T12:52:38;21.80;51.50
25058;DHT22;13057;50.978;11.034;2023-06-04T12:55:04;21.70;51.80
25058;DHT22;13057;50.978;11.034;2023-06-04T12:57:30;21.70;50.80
25058;DHT22;13057;50.978;11.034;2023-06-04T12:59:56;21.60;50.70
25058;DHT22;13057;50.978;11.034;2023-06-04T13:02:23;21.60;50.30
25058;DHT22;13057;50.978;11.034;2023-06-04T13:04:48;21.60;50.90
25058;DHT22;13057;50.978;11.034;2023-06-04T13:07:18;21.50;50.90
25058;DHT22;13057;50.978;11.034;2023-06-04T13:09:44;21.60;51.50
25058;DHT22;13057;50.978;11.034;2023-06-04T13:12:10;21.60;52.10
25058;DHT22;13057;50.978;11.034;2023-06-04T13:14:35;21.50;53.30
25058;DHT22;13057;50.978;11.034;2023-06-04T13:17:07;21.50;53.10
25058;DHT22;13057;50.978;11.034;2023-06-04T13:19:36;21.50;52.80
25058;DHT22;13057;50.978;11.034;2023-06-04T13:22:02;21.60;52.30
25058;DHT22;13057;50.978;11.034;2023-06-04T13:24:27;21.60;53.40
25058;DHT22;13057;50.978;11.034;2023-06-04T13:26:53;21.60;53.00
25058;DHT22;13057;50.978;11.034;2023-06-04T13:29:20;21.60;51.90
25058;DHT22;13057;50.978;11.034;2023-06-04T13:31:47;21.60;52.10
25058;DHT22;13057;50.978;11.034;2023-06-04T13:34:13;21.60;52.60
25058;DHT22;13057;50.978;11.034;2023-06-04T13:36:39;21.60;52.50
25058;DHT22;13057;50.978;11.034;2023-06-04T13:39:05;21.60;52.10
25058;DHT22;13057;50.978;11.034;2023-06-04T13:41:30;21.50;51.30
25058;DHT22;13057;50.978;11.034;2023-06-04T13:43:56;21.50;51.10
25058;DHT22;13057;50.978;11.034;2023-06-04T13:46:24;21.50;51.50
25058;DHT22;13057;50.978;11.034;2023-06-04T13:51:44;21.50;52.10
25058;DHT22;13057;50.978;11.034;2023-06-04T13:54:09;21.50;51.60
25058;DHT22;13057;50.978;11.034;2023-06-04T13:59:26;21.40;52.00
25058;DHT22;13057;50.978;11.034;2023-06-04T14:01:52;21.50;50.90
25058;DHT22;13057;50.978;11.034;2023-06-04T14:04:24;21.60;51.20
25058;DHT22;13057;50.978;11.034;2023-06-04T14:06:49;21.60;50.30
25058;DHT22;13057;50.978;11.034;2023-06-04T14:09:21;21.60;50.90
25058;DHT22;13057;50.978;11.034;2023-06-04T14:11:46;21.60;50.80
25058;DHT22;13057;50.978;11.034;2023-06-04T14:14:16;21.50;50.70
25058;DHT22;13057;50.978;11.034;2023-06-04T14:16:43;21.60;51.30
25058;DHT22;13057;50.978;11.034;2023-06-04T14:19:08;21.60;51.80
25058;DHT22;13057;50.978;11.034;2023-06-04T14:21:34;21.70;51.60
25058;DHT22;13057;50.978;11.034;2023-06-04T14:24:01;21.60;52.40
25058;DHT22;13057;50.978;11.034;2023-06-04T14:26:27;21.60;51.50
25058;DHT22;13057;50.978;11.034;2023-06-04T14:28:53;21.70;51.70
25058;DHT22;13057;50.978;11.034;2023-06-04T14:31:19;21.60;51.80
25058;DHT22;13057;50.978;11.034;2023-06-04T14:33:44;21.60;51.70
25058;DHT22;13057;50.978;11.034;2023-06-04T14:36:10;21.60;51.50
25058;DHT22;13057;50.978;11.034;2023-06-04T14:38:36;21.60;51.80
25058;DHT22;13057;50.978;11.034;2023-06-04T14:41:02;21.60;52.10
25058;DHT22;13057;50.978;11.034;2023-06-04T14:43:28;21.60;52.20
25058;DHT22;13057;50.978;11.034;2023-06-04T14:45:53;21.60;51.60
25058;DHT22;13057;50.978;11.034;2023-06-04T14:48:19;21.70;51.50
25058;DHT22;13057;50.978;11.034;2023-06-04T14:50:48;21.70;51.60
25058;DHT22;13057;50.978;11.034;2023-06-04T14:53:14;21.70;51.00
25058;DHT22;13057;50.978;11.034;2023-06-04T14:55:41;21.70;51.40
25058;DHT22;13057;50.978;11.034;2023-06-04T14:58:10;21.70;50.50
25058;DHT22;13057;50.978;11.034;2023-06-04T15:03:39;21.70;51.50
25058;DHT22;13057;50.978;11.034;2023-06-04T15:06:05;21.70;51.80
25058;DHT22;13057;50.978;11.034;2023-06-04T15:08:31;21.70;50.70
25058;DHT22;13057;50.978;11.034;2023-06-04T15:10:57;21.60;51.10
25058;DHT22;13057;50.978;11.034;2023-06-04T15:13:22;21.70;51.80
25058;DHT22;13057;50.978;11.034;2023-06-04T15:15:49;21.70;51.30
25058;DHT22;13057;50.978;11.034;2023-06-04T15:18:14;21.60;51.30
25058;DHT22;13057;50.978;11.034;2023-06-04T15:20:40;21.60;51.30
25058;DHT22;13057;50.978;11.034;2023-06-04T15:23:06;21.60;50.90
25058;DHT22;13057;50.978;11.034;2023-06-04T15:25:32;21.60;51.10
25058;DHT22;13057;50.978;11.034;2023-06-04T15:27:58;21.60;50.90
25058;DHT22;13057;50.978;11.034;2023-06-04T15:30:24;21.50;51.10
25058;DHT22;13057;50.978;11.034;2023-06-04T15:32:49;21.50;50.90